sensor_id;sensor_type;location;lat;lon;timestamp;P1;durP1;ratioP1;P2;durP2;ratioP2
38865;SDS011;62686;48.984;8.394;2023-11-21T00:00:05;17.38;;;5.22;;
38865;SDS011;62686;48.984;8.394;2023-11-21T00:02:38;14.63;;;5.00;;
38865;SDS011;62686;48.984;8.394;2023-11-21T00:05:07;16.02;;;4.18;;
38865;SDS011;62686;48.984;8.394;2023-11-21T00:07:36;10.57;;;3.08;;
38865;SDS011;62686;48.984;8.394;2023-11-21T00:10:06;19.87;;;6.10;;
38865;SDS011;62686;48.984;8.394;2023-11-21T00:12:38;16.10;;;5.43;;
38865;SDS011;62686;48.984;8.394;2023-11-21T00:15:08;7.53;;;2.42;;
38865;SDS011;62686;48.984;8.394;2023-11-21T00:17:38;15.05;;;3.58;;
38865;SDS011;62686;48.984;8.394;2023-11-21T00:20:07;12.90;;;3.25;;
38865;SDS011;62686;48.984;8.394;2023-11-21T00:22:39;8.93;;;3.07;;
38865;SDS011;62686;48.984;8.394;2023-11-21T00:25:07;6.55;;;2.33;;
38865;SDS011;62686;48.984;8.394;2023-11-21T00:27:38;7.78;;;2.30;;
38865;SDS011;62686;48.984;8.394;2023-11-21T00:30:06;7.25;;;2.90;;
38865;SDS011;62686;48.984;8.394;2023-11-21T00:32:36;10.45;;;3.72;;
38865;SDS011;62686;48.984;8.394;2023-11-21T00:35:05;4.53;;;2.20;;
38865;SDS011;62686;48.984;8.394;2023-11-21T00:37:34;5.30;;;2.80;;
38865;SDS011;62686;48.984;8.394;2023-11-21T00:40:02;8.55;;;2.70;;
38865;SDS011;62686;48.984;8.394;2023-11-21T00:42:32;3.85;;;2.22;;
38865;SDS011;62686;48.984;8.394;2023-11-21T00:45:02;7.28;;;2.03;;
38865;SDS011;62686;48.984;8.394;2023-11-21T00:47:32;5.30;;;2.13;;
38865;SDS011;62686;48.984;8.394;2023-11-21T00:50:00;3.80;;;2.05;;
38865;SDS011;62686;48.984;8.394;2023-11-21T00:52:29;6.75;;;2.05;;
38865;SDS011;62686;48.984;8.394;2023-11-21T00:54:57;5.03;;;1.10;;
38865;SDS011;62686;48.984;8.394;2023-11-21T00:57:26;3.42;;;1.30;;
38865;SDS011;62686;48.984;8.394;2023-11-21T00:59:55;4.07;;;1.87;;
38865;SDS011;62686;48.984;8.394;2023-11-21T01:02:24;7.55;;;1.70;;
38865;SDS011;62686;48.984;8.394;2023-11-21T01:04:53;2.30;;;1.58;;
38865;SDS011;62686;48.984;8.394;2023-11-21T01:07:21;5.13;;;1.83;;
38865;SDS011;62686;48.984;8.394;2023-11-21T01:09:50;3.55;;;1.83;;
38865;SDS011;62686;48.984;8.394;2023-11-21T01:12:19;3.23;;;1.80;;
38865;SDS011;62686;48.984;8.394;2023-11-21T01:14:47;5.90;;;1.70;;
38865;SDS011;62686;48.984;8.394;2023-11-21T01:17:17;4.65;;;1.77;;
38865;SDS011;62686;48.984;8.394;2023-11-21T01:19:50;4.28;;;1.95;;
38865;SDS011;62686;48.984;8.394;2023-11-21T01:22:19;8.77;;;1.80;;
38865;SDS011;62686;48.984;8.394;2023-11-21T01:24:52;5.80;;;1.70;;
38865;SDS011;62686;48.984;8.394;2023-11-21T01:27:21;3.33;;;2.05;;
38865;SDS011;62686;48.984;8.394;2023-11-21T01:29:49;4.32;;;1.70;;
38865;SDS011;62686;48.984;8.394;2023-11-21T01:32:19;4.13;;;1.50;;
38865;SDS011;62686;48.984;8.394;2023-11-21T01:34:50;6.60;;;2.20;;
38865;SDS011;62686;48.984;8.394;2023-11-21T01:37:19;4.33;;;1.73;;
38865;SDS011;62686;48.984;8.394;2023-11-21T01:39:49;3.00;;;1.75;;
38865;SDS011;62686;48.984;8.394;2023-11-21T01:42:17;6.82;;;2.33;;
38865;SDS011;62686;48.984;8.394;2023-11-21T01:44:46;8.85;;;1.83;;
38865;SDS011;62686;48.984;8.394;2023-11-21T01:47:15;5.28;;;2.05;;
38865;SDS011;62686;48.984;8.394;2023-11-21T01:49:45;5.93;;;2.03;;
38865;SDS011;62686;48.984;8.394;2023-11-21T01:52:15;5.03;;;1.85;;
38865;SDS011;62686;48.984;8.394;2023-11-21T01:54:44;2.58;;;1.65;;
38865;SDS011;62686;48.984;8.394;2023-11-21T01:57:12;4.75;;;1.83;;
38865;SDS011;62686;48.984;8.394;2023-11-21T01:59:42;6.15;;;1.73;;
38865;SDS011;62686;48.984;8.394;2023-11-21T02:02:12;6.33;;;1.70;;
38865;SDS011;62686;48.984;8.394;2023-11-21T02:04:40;3.15;;;1.60;;
38865;SDS011;62686;48.984;8.394;2023-11-21T02:07:09;3.90;;;1.45;;
38865;SDS011;62686;48.984;8.394;2023-11-21T02:09:39;4.80;;;1.73;;
38865;SDS011;62686;48.984;8.394;2023-11-21T02:12:09;6.40;;;1.65;;
38865;SDS011;62686;48.984;8.394;2023-11-21T02:14:37;7.80;;;2.00;;
38865;SDS011;62686;48.984;8.394;2023-11-21T02:17:06;6.00;;;1.77;;
38865;SDS011;62686;48.984;8.394;2023-11-21T02:19:37;6.70;;;1.90;;
38865;SDS011;62686;48.984;8.394;2023-11-21T02:22:05;3.83;;;1.45;;
38865;SDS011;62686;48.984;8.394;2023-11-21T02:24:36;6.60;;;1.65;;
38865;SDS011;62686;48.984;8.394;2023-11-21T02:27:06;5.47;;;2.33;;
38865;SDS011;62686;48.984;8.394;2023-11-21T02:29:35;3.40;;;1.73;;
38865;SDS011;62686;48.984;8.394;2023-11-21T02:32:08;4.05;;;1.60;;
38865;SDS011;62686;48.984;8.394;2023-11-21T02:34:38;2.80;;;1.70;;
38865;SDS011;62686;48.984;8.394;2023-11-21T02:37:07;4.88;;;1.50;;
38865;SDS011;62686;48.984;8.394;2023-11-21T02:39:36;5.07;;;1.60;;
38865;SDS011;62686;48.984;8.394;2023-11-21T02:42:06;3.58;;;1.40;;
38865;SDS011;62686;48.984;8.394;2023-11-21T02:44:34;3.85;;;1.48;;
38865;SDS011;62686;48.984;8.394;2023-11-21T02:47:03;2.90;;;1.65;;
38865;SDS011;62686;48.984;8.394;2023-11-21T02:49:32;3.60;;;1.40;;
38865;SDS011;62686;48.984;8.394;2023-11-21T02:52:03;4.97;;;1.37;;
38865;SDS011;62686;48.984;8.394;2023-11-21T02:54:32;4.70;;;1.48;;
38865;SDS011;62686;48.984;8.394;2023-11-21T02:57:04;5.03;;;1.50;;
38865;SDS011;62686;48.984;8.394;2023-11-21T02:59:34;4.35;;;1.50;;
38865;SDS011;62686;48.984;8.394;2023-11-21T03:02:02;6.45;;;1.98;;
38865;SDS011;62686;48.984;8.394;2023-11-21T03:04:34;4.80;;;1.73;;
38865;SDS011;62686;48.984;8.394;2023-11-21T03:07:03;4.70;;;2.28;;
38865;SDS011;62686;48.984;8.394;2023-11-21T03:09:31;3.88;;;1.75;;
38865;SDS011;62686;48.984;8.394;2023-11-21T03:12:00;2.30;;;1.58;;
38865;SDS011;62686;48.984;8.394;2023-11-21T03:14:30;4.63;;;1.70;;
38865;SDS011;62686;48.984;8.394;2023-11-21T03:16:58;4.70;;;1.60;;
38865;SDS011;62686;48.984;8.394;2023-11-21T03:19:27;2.65;;;1.55;;
38865;SDS011;62686;48.984;8.394;2023-11-21T03:21:55;2.55;;;1.75;;
38865;SDS011;62686;48.984;8.394;2023-11-21T03:24:24;5.28;;;1.95;;
38865;SDS011;62686;48.984;8.394;2023-11-21T03:26:52;5.03;;;1.92;;
38865;SDS011;62686;48.984;8.394;2023-11-21T03:29:22;3.50;;;1.77;;
38865;SDS011;62686;48.984;8.394;2023-11-21T03:31:52;3.58;;;1.70;;
38865;SDS011;62686;48.984;8.394;2023-11-21T03:34:23;3.03;;;1.63;;
38865;SDS011;62686;48.984;8.394;2023-11-21T03:36:53;5.30;;;1.65;;
38865;SDS011;62686;48.984;8.394;2023-11-21T03:39:22;4.28;;;1.52;;
38865;SDS011;62686;48.984;8.394;2023-11-21T03:41:52;4.60;;;1.90;;
38865;SDS011;62686;48.984;8.394;2023-11-21T03:44:20;5.35;;;2.38;;
38865;SDS011;62686;48.984;8.394;2023-11-21T03:46:48;4.95;;;1.95;;
38865;SDS011;62686;48.984;8.394;2023-11-21T03:49:18;5.38;;;1.83;;
38865;SDS011;62686;48.984;8.394;2023-11-21T03:51:47;3.97;;;2.00;;
38865;SDS011;62686;48.984;8.394;2023-11-21T03:54:14;3.73;;;2.00;;
38865;SDS011;62686;48.984;8.394;2023-11-21T03:56:42;8.73;;;2.25;;
38865;SDS011;62686;48.984;8.394;2023-11-21T03:59:11;6.05;;;1.40;;
38865;SDS011;62686;48.984;8.394;2023-11-21T04:01:39;2.05;;;1.73;;
38865;SDS011;62686;48.984;8.394;2023-11-21T04:04:08;6.90;;;2.05;;
38865;SDS011;62686;48.984;8.394;2023-11-21T04:06:38;4.03;;;1.80;;
38865;SDS011;62686;48.984;8.394;2023-11-21T04:09:06;2.75;;;1.83;;
38865;SDS011;62686;48.984;8.394;2023-11-21T04:11:35;4.22;;;2.03;;
38865;SDS011;62686;48.984;8.394;2023-11-21T04:14:04;5.07;;;1.92;;
38865;SDS011;62686;48.984;8.394;2023-11-21T04:16:33;4.75;;;2.10;;
38865;SDS011;62686;48.984;8.394;2023-11-21T04:19:01;4.87;;;2.10;;
38865;SDS011;62686;48.984;8.394;2023-11-21T04:21:30;4.20;;;1.50;;
38865;SDS011;62686;48.984;8.394;2023-11-21T04:24:01;3.92;;;1.45;;
38865;SDS011;62686;48.984;8.394;2023-11-21T04:26:29;4.28;;;1.80;;
38865;SDS011;62686;48.984;8.394;2023-11-21T04:28:58;4.03;;;1.98;;
38865;SDS011;62686;48.984;8.394;2023-11-21T04:31:26;8.90;;;3.53;;
38865;SDS011;62686;48.984;8.394;2023-11-21T04:33:55;17.70;;;5.10;;
38865;SDS011;62686;48.984;8.394;2023-11-21T04:36:23;12.73;;;4.35;;
38865;SDS011;62686;48.984;8.394;2023-11-21T04:38:51;9.70;;;3.67;;
38865;SDS011;62686;48.984;8.394;2023-11-21T04:41:21;7.65;;;3.25;;
38865;SDS011;62686;48.984;8.394;2023-11-21T04:43:50;9.27;;;3.70;;
38865;SDS011;62686;48.984;8.394;2023-11-21T04:46:18;7.05;;;2.70;;
38865;SDS011;62686;48.984;8.394;2023-11-21T04:48:46;7.45;;;2.55;;
38865;SDS011;62686;48.984;8.394;2023-11-21T04:51:15;8.65;;;2.58;;
38865;SDS011;62686;48.984;8.394;2023-11-21T04:53:44;8.27;;;2.65;;
38865;SDS011;62686;48.984;8.394;2023-11-21T04:56:12;6.87;;;2.63;;
38865;SDS011;62686;48.984;8.394;2023-11-21T04:58:43;5.38;;;2.20;;
38865;SDS011;62686;48.984;8.394;2023-11-21T05:01:12;4.45;;;2.40;;
38865;SDS011;62686;48.984;8.394;2023-11-21T05:03:40;8.30;;;2.83;;
38865;SDS011;62686;48.984;8.394;2023-11-21T05:06:09;6.63;;;2.58;;
38865;SDS011;62686;48.984;8.394;2023-11-21T05:08:38;4.73;;;2.20;;
38865;SDS011;62686;48.984;8.394;2023-11-21T05:11:06;6.13;;;2.17;;
38865;SDS011;62686;48.984;8.394;2023-11-21T05:13:36;3.97;;;2.45;;
38865;SDS011;62686;48.984;8.394;2023-11-21T05:16:07;4.57;;;2.50;;
38865;SDS011;62686;48.984;8.394;2023-11-21T05:18:36;7.43;;;3.15;;
38865;SDS011;62686;48.984;8.394;2023-11-21T05:21:04;6.37;;;2.97;;
38865;SDS011;62686;48.984;8.394;2023-11-21T05:23:33;6.65;;;2.95;;
38865;SDS011;62686;48.984;8.394;2023-11-21T05:26:01;6.80;;;2.47;;
38865;SDS011;62686;48.984;8.394;2023-11-21T05:28:30;8.75;;;3.25;;
38865;SDS011;62686;48.984;8.394;2023-11-21T05:30:58;8.50;;;3.65;;
38865;SDS011;62686;48.984;8.394;2023-11-21T05:33:30;8.83;;;4.17;;
38865;SDS011;62686;48.984;8.394;2023-11-21T05:35:59;7.22;;;3.40;;
38865;SDS011;62686;48.984;8.394;2023-11-21T05:38:28;8.27;;;3.38;;
38865;SDS011;62686;48.984;8.394;2023-11-21T05:40:56;8.63;;;3.90;;
38865;SDS011;62686;48.984;8.394;2023-11-21T05:43:25;7.93;;;3.25;;
38865;SDS011;62686;48.984;8.394;2023-11-21T05:45:54;12.33;;;4.47;;
38865;SDS011;62686;48.984;8.394;2023-11-21T05:48:33;7.07;;;3.47;;
38865;SDS011;62686;48.984;8.394;2023-11-21T05:51:03;9.38;;;4.20;;
38865;SDS011;62686;48.984;8.394;2023-11-21T05:53:32;11.05;;;4.30;;
38865;SDS011;62686;48.984;8.394;2023-11-21T05:56:00;6.07;;;3.38;;
38865;SDS011;62686;48.984;8.394;2023-11-21T05:58:30;6.60;;;3.20;;
38865;SDS011;62686;48.984;8.394;2023-11-21T06:00:58;6.32;;;3.08;;
38865;SDS011;62686;48.984;8.394;2023-11-21T06:03:26;8.50;;;3.80;;
38865;SDS011;62686;48.984;8.394;2023-11-21T06:05:56;6.78;;;2.63;;
38865;SDS011;62686;48.984;8.394;2023-11-21T06:08:25;9.95;;;3.30;;
38865;SDS011;62686;48.984;8.394;2023-11-21T06:10:53;7.10;;;3.20;;
38865;SDS011;62686;48.984;8.394;2023-11-21T06:13:22;7.60;;;3.72;;
38865;SDS011;62686;48.984;8.394;2023-11-21T06:15:51;8.10;;;3.90;;
38865;SDS011;62686;48.984;8.394;2023-11-21T06:18:19;7.90;;;3.22;;
38865;SDS011;62686;48.984;8.394;2023-11-21T06:20:47;5.22;;;3.03;;
38865;SDS011;62686;48.984;8.394;2023-11-21T06:23:17;13.00;;;4.50;;
38865;SDS011;62686;48.984;8.394;2023-11-21T06:25:46;7.50;;;3.63;;
38865;SDS011;62686;48.984;8.394;2023-11-21T06:28:15;7.68;;;3.65;;
38865;SDS011;62686;48.984;8.394;2023-11-21T06:30:44;9.07;;;4.20;;
38865;SDS011;62686;48.984;8.394;2023-11-21T06:33:12;7.47;;;4.85;;
38865;SDS011;62686;48.984;8.394;2023-11-21T06:35:41;5.13;;;2.87;;
38865;SDS011;62686;48.984;8.394;2023-11-21T06:38:09;5.80;;;3.88;;
38865;SDS011;62686;48.984;8.394;2023-11-21T06:40:40;8.38;;;3.60;;
38865;SDS011;62686;48.984;8.394;2023-11-21T06:43:08;6.57;;;3.25;;
38865;SDS011;62686;48.984;8.394;2023-11-21T06:45:36;5.82;;;3.35;;
38865;SDS011;62686;48.984;8.394;2023-11-21T06:48:05;6.33;;;3.50;;
38865;SDS011;62686;48.984;8.394;2023-11-21T06:50:33;4.47;;;3.40;;
38865;SDS011;62686;48.984;8.394;2023-11-21T06:53:01;6.20;;;3.25;;
38865;SDS011;62686;48.984;8.394;2023-11-21T06:55:33;9.63;;;3.60;;
38865;SDS011;62686;48.984;8.394;2023-11-21T06:58:03;6.75;;;3.78;;
38865;SDS011;62686;48.984;8.394;2023-11-21T07:00:31;9.03;;;4.07;;
38865;SDS011;62686;48.984;8.394;2023-11-21T07:03:00;10.25;;;4.15;;
38865;SDS011;62686;48.984;8.394;2023-11-21T07:05:28;8.38;;;4.32;;
38865;SDS011;62686;48.984;8.394;2023-11-21T07:07:56;10.63;;;5.70;;
38865;SDS011;62686;48.984;8.394;2023-11-21T07:10:30;9.93;;;4.70;;
38865;SDS011;62686;48.984;8.394;2023-11-21T07:12:59;9.47;;;4.57;;
38865;SDS011;62686;48.984;8.394;2023-11-21T07:15:28;10.27;;;4.65;;
38865;SDS011;62686;48.984;8.394;2023-11-21T07:17:57;9.25;;;4.25;;
38865;SDS011;62686;48.984;8.394;2023-11-21T07:20:25;8.52;;;4.45;;
38865;SDS011;62686;48.984;8.394;2023-11-21T07:22:54;9.73;;;4.13;;
38865;SDS011;62686;48.984;8.394;2023-11-21T07:25:26;9.67;;;4.37;;
38865;SDS011;62686;48.984;8.394;2023-11-21T07:27:54;8.00;;;4.38;;
38865;SDS011;62686;48.984;8.394;2023-11-21T07:30:23;10.05;;;4.15;;
38865;SDS011;62686;48.984;8.394;2023-11-21T07:32:52;10.57;;;4.72;;
38865;SDS011;62686;48.984;8.394;2023-11-21T07:35:21;8.40;;;4.60;;
38865;SDS011;62686;48.984;8.394;2023-11-21T07:37:50;7.73;;;4.80;;
38865;SDS011;62686;48.984;8.394;2023-11-21T07:40:18;7.55;;;4.38;;
38865;SDS011;62686;48.984;8.394;2023-11-21T07:42:48;10.38;;;5.00;;
38865;SDS011;62686;48.984;8.394;2023-11-21T07:45:17;11.27;;;4.70;;
38865;SDS011;62686;48.984;8.394;2023-11-21T07:47:46;8.15;;;4.20;;
38865;SDS011;62686;48.984;8.394;2023-11-21T07:50:15;10.93;;;4.70;;
38865;SDS011;62686;48.984;8.394;2023-11-21T07:52:44;10.18;;;4.80;;
38865;SDS011;62686;48.984;8.394;2023-11-21T07:55:13;9.80;;;4.82;;
38865;SDS011;62686;48.984;8.394;2023-11-21T07:57:41;11.05;;;5.15;;
38865;SDS011;62686;48.984;8.394;2023-11-21T08:00:10;9.75;;;5.30;;
38865;SDS011;62686;48.984;8.394;2023-11-21T08:02:41;10.33;;;4.70;;
38865;SDS011;62686;48.984;8.394;2023-11-21T08:05:12;8.98;;;4.55;;
38865;SDS011;62686;48.984;8.394;2023-11-21T08:07:45;6.90;;;4.32;;
38865;SDS011;62686;48.984;8.394;2023-11-21T08:10:12;8.10;;;4.43;;
38865;SDS011;62686;48.984;8.394;2023-11-21T08:12:41;8.63;;;4.40;;
38865;SDS011;62686;48.984;8.394;2023-11-21T08:15:09;8.00;;;4.10;;
38865;SDS011;62686;48.984;8.394;2023-11-21T08:17:38;8.23;;;4.10;;
38865;SDS011;62686;48.984;8.394;2023-11-21T08:20:07;7.35;;;3.90;;
38865;SDS011;62686;48.984;8.394;2023-11-21T08:22:38;8.75;;;4.40;;
38865;SDS011;62686;48.984;8.394;2023-11-21T08:25:09;6.85;;;3.92;;
38865;SDS011;62686;48.984;8.394;2023-11-21T08:27:39;9.67;;;4.43;;
38865;SDS011;62686;48.984;8.394;2023-11-21T08:30:07;8.13;;;4.43;;
38865;SDS011;62686;48.984;8.394;2023-11-21T08:32:37;9.52;;;4.70;;
38865;SDS011;62686;48.984;8.394;2023-11-21T08:35:06;9.38;;;4.75;;
38865;SDS011;62686;48.984;8.394;2023-11-21T08:37:35;10.15;;;4.97;;
38865;SDS011;62686;48.984;8.394;2023-11-21T08:40:05;8.27;;;4.40;;
38865;SDS011;62686;48.984;8.394;2023-11-21T08:42:39;8.55;;;4.90;;
38865;SDS011;62686;48.984;8.394;2023-11-21T08:45:07;9.70;;;5.30;;
38865;SDS011;62686;48.984;8.394;2023-11-21T08:47:37;13.90;;;6.50;;
38865;SDS011;62686;48.984;8.394;2023-11-21T08:50:06;12.18;;;6.28;;
38865;SDS011;62686;48.984;8.394;2023-11-21T08:52:35;12.37;;;6.43;;
38865;SDS011;62686;48.984;8.394;2023-11-21T08:55:04;12.13;;;6.38;;
38865;SDS011;62686;48.984;8.394;2023-11-21T08:57:36;14.73;;;7.00;;
38865;SDS011;62686;48.984;8.394;2023-11-21T09:00:07;11.82;;;6.25;;
38865;SDS011;62686;48.984;8.394;2023-11-21T09:02:38;11.73;;;6.15;;
38865;SDS011;62686;48.984;8.394;2023-11-21T09:05:08;16.10;;;8.10;;
38865;SDS011;62686;48.984;8.394;2023-11-21T09:07:38;10.95;;;5.65;;
38865;SDS011;62686;48.984;8.394;2023-11-21T09:10:08;11.07;;;5.90;;
38865;SDS011;62686;48.984;8.394;2023-11-21T09:12:38;12.80;;;6.65;;
38865;SDS011;62686;48.984;8.394;2023-11-21T09:15:09;12.93;;;6.80;;
38865;SDS011;62686;48.984;8.394;2023-11-21T09:17:38;13.37;;;6.83;;
38865;SDS011;62686;48.984;8.394;2023-11-21T09:20:07;13.38;;;6.68;;
38865;SDS011;62686;48.984;8.394;2023-11-21T09:22:37;12.75;;;6.72;;
38865;SDS011;62686;48.984;8.394;2023-11-21T09:25:06;13.43;;;7.25;;
38865;SDS011;62686;48.984;8.394;2023-11-21T09:27:36;11.82;;;6.03;;
38865;SDS011;62686;48.984;8.394;2023-11-21T09:30:06;12.90;;;6.27;;
38865;SDS011;62686;48.984;8.394;2023-11-21T09:32:37;12.55;;;5.80;;
38865;SDS011;62686;48.984;8.394;2023-11-21T09:35:07;11.77;;;6.28;;
38865;SDS011;62686;48.984;8.394;2023-11-21T09:37:36;12.57;;;7.00;;
38865;SDS011;62686;48.984;8.394;2023-11-21T09:40:06;12.75;;;6.35;;
38865;SDS011;62686;48.984;8.394;2023-11-21T09:42:40;12.17;;;6.33;;
38865;SDS011;62686;48.984;8.394;2023-11-21T09:45:21;10.18;;;5.85;;
38865;SDS011;62686;48.984;8.394;2023-11-21T09:47:53;14.07;;;7.30;;
38865;SDS011;62686;48.984;8.394;2023-11-21T09:50:23;12.60;;;7.15;;
38865;SDS011;62686;48.984;8.394;2023-11-21T09:52:57;13.27;;;6.40;;
38865;SDS011;62686;48.984;8.394;2023-11-21T09:55:39;13.43;;;6.90;;
38865;SDS011;62686;48.984;8.394;2023-11-21T10:22:09;13.15;;;6.57;;
38865;SDS011;62686;48.984;8.394;2023-11-21T10:24:38;11.98;;;6.38;;
38865;SDS011;62686;48.984;8.394;2023-11-21T10:27:06;11.48;;;6.00;;
38865;SDS011;62686;48.984;8.394;2023-11-21T10:29:35;10.73;;;5.77;;
38865;SDS011;62686;48.984;8.394;2023-11-21T10:32:03;10.23;;;6.20;;
38865;SDS011;62686;48.984;8.394;2023-11-21T10:34:32;9.80;;;5.57;;
38865;SDS011;62686;48.984;8.394;2023-11-21T10:37:10;10.40;;;5.60;;
38865;SDS011;62686;48.984;8.394;2023-11-21T10:39:38;8.50;;;4.88;;
38865;SDS011;62686;48.984;8.394;2023-11-21T10:42:09;8.43;;;4.87;;
38865;SDS011;62686;48.984;8.394;2023-11-21T10:44:38;8.13;;;5.07;;
38865;SDS011;62686;48.984;8.394;2023-11-21T10:47:10;9.13;;;4.95;;
38865;SDS011;62686;48.984;8.394;2023-11-21T10:49:39;8.88;;;4.93;;
38865;SDS011;62686;48.984;8.394;2023-11-21T11:08:37;7.63;;;4.30;;
38865;SDS011;62686;48.984;8.394;2023-11-21T11:11:07;8.75;;;5.15;;
38865;SDS011;62686;48.984;8.394;2023-11-21T11:13:38;9.73;;;4.77;;
38865;SDS011;62686;48.984;8.394;2023-11-21T11:16:12;8.82;;;5.25;;
38865;SDS011;62686;48.984;8.394;2023-11-21T11:18:44;8.70;;;4.88;;
38865;SDS011;62686;48.984;8.394;2023-11-21T11:21:16;9.32;;;4.93;;
38865;SDS011;62686;48.984;8.394;2023-11-21T11:24:02;8.10;;;4.65;;
38865;SDS011;62686;48.984;8.394;2023-11-21T11:26:45;7.80;;;4.83;;
38865;SDS011;62686;48.984;8.394;2023-11-21T11:29:23;11.18;;;5.65;;
38865;SDS011;62686;48.984;8.394;2023-11-21T11:32:03;9.27;;;4.65;;
38865;SDS011;62686;48.984;8.394;2023-11-21T11:34:41;7.40;;;5.00;;
38865;SDS011;62686;48.984;8.394;2023-11-21T11:37:16;8.15;;;4.80;;
38865;SDS011;62686;48.984;8.394;2023-11-21T11:39:46;7.97;;;5.33;;
38865;SDS011;62686;48.984;8.394;2023-11-21T11:42:17;8.45;;;4.78;;
38865;SDS011;62686;48.984;8.394;2023-11-21T11:44:50;7.20;;;4.50;;
38865;SDS011;62686;48.984;8.394;2023-11-21T11:47:21;7.53;;;4.63;;
38865;SDS011;62686;48.984;8.394;2023-11-21T11:49:58;8.48;;;4.90;;
38865;SDS011;62686;48.984;8.394;2023-11-21T11:52:34;7.73;;;4.90;;
38865;SDS011;62686;48.984;8.394;2023-11-21T11:55:07;8.63;;;5.30;;
38865;SDS011;62686;48.984;8.394;2023-11-21T11:57:41;8.50;;;5.38;;
38865;SDS011;62686;48.984;8.394;2023-11-21T12:00:14;10.88;;;5.25;;
38865;SDS011;62686;48.984;8.394;2023-11-21T12:02:47;10.07;;;5.40;;
38865;SDS011;62686;48.984;8.394;2023-11-21T12:05:18;9.53;;;6.10;;
38865;SDS011;62686;48.984;8.394;2023-11-21T12:07:50;10.05;;;5.25;;
38865;SDS011;62686;48.984;8.394;2023-11-21T12:10:22;10.38;;;5.40;;
38865;SDS011;62686;48.984;8.394;2023-11-21T12:12:53;10.02;;;5.28;;
38865;SDS011;62686;48.984;8.394;2023-11-21T12:15:24;10.95;;;6.00;;
38865;SDS011;62686;48.984;8.394;2023-11-21T12:17:55;10.93;;;5.47;;
38865;SDS011;62686;48.984;8.394;2023-11-21T12:20:25;8.45;;;5.32;;
38865;SDS011;62686;48.984;8.394;2023-11-21T12:22:55;9.93;;;5.00;;
38865;SDS011;62686;48.984;8.394;2023-11-21T12:25:27;10.13;;;5.38;;
38865;SDS011;62686;48.984;8.394;2023-11-21T12:27:58;10.95;;;5.90;;
38865;SDS011;62686;48.984;8.394;2023-11-21T12:30:30;10.73;;;5.53;;
38865;SDS011;62686;48.984;8.394;2023-11-21T12:33:02;10.80;;;5.70;;
38865;SDS011;62686;48.984;8.394;2023-11-21T12:35:33;8.93;;;5.00;;
38865;SDS011;62686;48.984;8.394;2023-11-21T12:38:03;6.72;;;4.53;;
38865;SDS011;62686;48.984;8.394;2023-11-21T12:40:33;10.18;;;5.68;;
38865;SDS011;62686;48.984;8.394;2023-11-21T12:43:02;8.50;;;5.27;;
38865;SDS011;62686;48.984;8.394;2023-11-21T12:45:31;9.43;;;5.43;;
38865;SDS011;62686;48.984;8.394;2023-11-21T12:48:00;9.23;;;5.22;;
38865;SDS011;62686;48.984;8.394;2023-11-21T12:50:34;8.95;;;5.47;;
38865;SDS011;62686;48.984;8.394;2023-11-21T12:53:04;9.27;;;5.53;;
38865;SDS011;62686;48.984;8.394;2023-11-21T12:55:36;11.23;;;6.30;;
38865;SDS011;62686;48.984;8.394;2023-11-21T12:58:05;7.15;;;4.82;;
38865;SDS011;62686;48.984;8.394;2023-11-21T13:00:37;10.80;;;6.07;;
38865;SDS011;62686;48.984;8.394;2023-11-21T13:03:09;11.13;;;6.38;;
38865;SDS011;62686;48.984;8.394;2023-11-21T13:05:43;9.05;;;5.85;;
38865;SDS011;62686;48.984;8.394;2023-11-21T13:08:17;11.13;;;5.77;;
38865;SDS011;62686;48.984;8.394;2023-11-21T13:10:51;10.30;;;5.35;;
38865;SDS011;62686;48.984;8.394;2023-11-21T13:13:21;10.32;;;6.13;;
38865;SDS011;62686;48.984;8.394;2023-11-21T13:15:52;9.73;;;6.22;;
38865;SDS011;62686;48.984;8.394;2023-11-21T13:18:22;9.45;;;5.82;;
38865;SDS011;62686;48.984;8.394;2023-11-21T13:20:52;10.37;;;5.70;;
38865;SDS011;62686;48.984;8.394;2023-11-21T13:23:23;9.50;;;6.10;;
38865;SDS011;62686;48.984;8.394;2023-11-21T13:25:53;9.27;;;5.35;;
38865;SDS011;62686;48.984;8.394;2023-11-21T13:28:23;10.32;;;4.70;;
38865;SDS011;62686;48.984;8.394;2023-11-21T13:30:58;8.93;;;4.78;;
38865;SDS011;62686;48.984;8.394;2023-11-21T13:33:29;9.23;;;5.37;;
38865;SDS011;62686;48.984;8.394;2023-11-21T13:35:59;9.30;;;4.95;;
38865;SDS011;62686;48.984;8.394;2023-11-21T13:38:28;8.85;;;5.13;;
38865;SDS011;62686;48.984;8.394;2023-11-21T13:41:01;6.95;;;4.70;;
38865;SDS011;62686;48.984;8.394;2023-11-21T13:43:33;8.18;;;4.80;;
38865;SDS011;62686;48.984;8.394;2023-11-21T13:46:03;8.27;;;5.10;;
38865;SDS011;62686;48.984;8.394;2023-11-21T13:48:39;8.63;;;4.50;;
38865;SDS011;62686;48.984;8.394;2023-11-21T13:51:09;7.75;;;4.25;;
38865;SDS011;62686;48.984;8.394;2023-11-21T13:53:43;7.65;;;4.28;;
38865;SDS011;62686;48.984;8.394;2023-11-21T13:56:15;6.63;;;3.83;;
38865;SDS011;62686;48.984;8.394;2023-11-21T13:58:48;5.40;;;4.13;;
38865;SDS011;62686;48.984;8.394;2023-11-21T14:01:18;5.15;;;3.85;;
38865;SDS011;62686;48.984;8.394;2023-11-21T14:04:09;7.60;;;3.90;;
38865;SDS011;62686;48.984;8.394;2023-11-21T14:06:45;6.97;;;4.05;;
38865;SDS011;62686;48.984;8.394;2023-11-21T14:09:21;5.50;;;4.07;;
38865;SDS011;62686;48.984;8.394;2023-11-21T14:12:00;5.03;;;3.63;;
38865;SDS011;62686;48.984;8.394;2023-11-21T14:14:32;4.40;;;3.28;;
38865;SDS011;62686;48.984;8.394;2023-11-21T14:17:01;6.35;;;3.90;;
38865;SDS011;62686;48.984;8.394;2023-11-21T14:19:33;6.65;;;3.50;;
38865;SDS011;62686;48.984;8.394;2023-11-21T14:22:05;5.22;;;3.75;;
38865;SDS011;62686;48.984;8.394;2023-11-21T14:24:36;6.10;;;4.10;;
38865;SDS011;62686;48.984;8.394;2023-11-21T14:27:11;7.85;;;4.47;;
38865;SDS011;62686;48.984;8.394;2023-11-21T14:29:41;6.60;;;4.32;;
38865;SDS011;62686;48.984;8.394;2023-11-21T14:32:11;6.57;;;4.82;;
38865;SDS011;62686;48.984;8.394;2023-11-21T14:34:40;6.90;;;4.35;;
38865;SDS011;62686;48.984;8.394;2023-11-21T14:37:11;8.37;;;4.73;;
38865;SDS011;62686;48.984;8.394;2023-11-21T14:39:40;7.38;;;4.38;;
38865;SDS011;62686;48.984;8.394;2023-11-21T14:42:13;8.38;;;5.03;;
38865;SDS011;62686;48.984;8.394;2023-11-21T14:44:42;6.95;;;5.05;;
38865;SDS011;62686;48.984;8.394;2023-11-21T14:47:11;8.52;;;5.35;;
38865;SDS011;62686;48.984;8.394;2023-11-21T14:49:43;8.87;;;5.77;;
38865;SDS011;62686;48.984;8.394;2023-11-21T14:52:20;8.88;;;5.63;;
38865;SDS011;62686;48.984;8.394;2023-11-21T14:54:59;13.63;;;6.10;;
38865;SDS011;62686;48.984;8.394;2023-11-21T14:57:43;7.35;;;4.85;;
38865;SDS011;62686;48.984;8.394;2023-11-21T15:00:16;7.95;;;4.78;;
38865;SDS011;62686;48.984;8.394;2023-11-21T15:03:05;4.47;;;3.33;;
38865;SDS011;62686;48.984;8.394;2023-11-21T15:05:35;5.50;;;4.10;;
38865;SDS011;62686;48.984;8.394;2023-11-21T15:08:05;7.47;;;4.53;;
38865;SDS011;62686;48.984;8.394;2023-11-21T15:10:46;8.18;;;4.43;;
38865;SDS011;62686;48.984;8.394;2023-11-21T15:13:20;7.00;;;4.45;;
38865;SDS011;62686;48.984;8.394;2023-11-21T15:15:50;8.73;;;4.63;;
38865;SDS011;62686;48.984;8.394;2023-11-21T15:18:20;5.53;;;3.67;;
38865;SDS011;62686;48.984;8.394;2023-11-21T15:20:49;8.00;;;4.97;;
38865;SDS011;62686;48.984;8.394;2023-11-21T15:23:17;7.18;;;5.20;;
38865;SDS011;62686;48.984;8.394;2023-11-21T15:25:46;9.52;;;5.00;;
38865;SDS011;62686;48.984;8.394;2023-11-21T15:28:14;9.20;;;5.27;;
38865;SDS011;62686;48.984;8.394;2023-11-21T15:30:45;11.90;;;5.28;;
38865;SDS011;62686;48.984;8.394;2023-11-21T15:33:16;8.73;;;5.03;;
38865;SDS011;62686;48.984;8.394;2023-11-21T15:35:45;7.63;;;5.15;;
38865;SDS011;62686;48.984;8.394;2023-11-21T15:38:13;10.52;;;5.57;;
38865;SDS011;62686;48.984;8.394;2023-11-21T15:40:41;10.87;;;6.20;;
38865;SDS011;62686;48.984;8.394;2023-11-21T15:43:12;7.43;;;4.88;;